createdAt,value
2023-05-19T00:00:24.201Z,10.19
2023-05-19T00:01:15.487Z,10.19
2023-05-19T00:02:06.804Z,10.18
2023-05-19T00:02:57.681Z,10.12
2023-05-19T00:03:48.421Z,10.12
2023-05-19T00:04:39.145Z,10.06
2023-05-19T00:05:30.472Z,10.04
2023-05-19T00:06:21.771Z,10.03
2023-05-19T00:07:13.042Z,10.01
2023-05-19T00:08:03.633Z,10.01
2023-05-19T00:08:54.310Z,10.03
2023-05-19T00:09:45.624Z,10.01
2023-05-19T00:10:36.824Z,10.04
2023-05-19T00:11:28.084Z,10.03
2023-05-19T00:12:19.218Z,10.03
2023-05-19T00:13:10.450Z,10.03
2023-05-19T00:14:01.698Z,10.00
2023-05-19T00:14:52.382Z,9.99
2023-05-19T00:15:43.677Z,9.97
2023-05-19T00:16:34.522Z,9.96
2023-05-19T00:17:25.183Z,9.96
2023-05-19T00:18:16.419Z,9.96
2023-05-19T00:19:07.144Z,9.99
2023-05-19T00:19:58.387Z,10.01
2023-05-19T00:20:49.156Z,10.03
2023-05-19T00:21:40.222Z,10.04
2023-05-19T00:22:31.482Z,10.07
2023-05-19T00:23:22.744Z,10.10
2023-05-19T00:24:14.050Z,10.12
2023-05-19T00:25:05.299Z,10.12
2023-05-19T00:25:56.579Z,10.15
2023-05-19T00:26:47.746Z,10.14
2023-05-19T00:27:39.823Z,10.17
2023-05-19T00:28:29.837Z,10.17
2023-05-19T00:29:20.584Z,10.17
2023-05-19T00:30:11.644Z,10.17
2023-05-19T00:31:02.817Z,10.15
2023-05-19T00:31:53.576Z,10.17
2023-05-19T00:32:44.358Z,10.17
2023-05-19T00:33:35.040Z,10.15
2023-05-19T00:34:25.726Z,10.17
2023-05-19T00:35:16.925Z,10.17
2023-05-19T00:36:07.619Z,10.14
2023-05-19T00:36:58.850Z,10.14
2023-05-19T00:37:49.519Z,10.15
2023-05-19T00:38:40.697Z,10.12
2023-05-19T00:39:31.461Z,10.14
2023-05-19T00:40:22.224Z,10.12
2023-05-19T00:41:13.502Z,10.12
2023-05-19T00:42:04.794Z,10.10
2023-05-19T00:42:55.537Z,10.09
2023-05-19T00:43:46.751Z,10.09
2023-05-19T00:44:37.508Z,10.14
2023-05-19T00:45:28.707Z,10.15
2023-05-19T00:46:20.002Z,10.17
2023-05-19T00:47:11.253Z,10.17
2023-05-19T00:48:02.140Z,10.21
2023-05-19T00:48:52.832Z,10.22
2023-05-19T00:49:44.058Z,10.24
2023-05-19T00:50:34.870Z,10.24
2023-05-19T00:51:25.710Z,10.25
2023-05-19T00:52:16.934Z,10.25
2023-05-19T00:53:08.214Z,10.22
2023-05-19T00:53:58.930Z,10.19
2023-05-19T00:54:49.691Z,10.18
2023-05-19T00:55:40.399Z,10.17
2023-05-19T00:56:31.173Z,10.14
2023-05-19T00:57:21.972Z,10.10
2023-05-19T00:58:12.756Z,10.07
2023-05-19T00:59:03.569Z,10.04
2023-05-19T00:59:54.399Z,10.06
2023-05-19T01:00:45.172Z,10.06
2023-05-19T01:01:35.938Z,10.06
2023-05-19T01:02:26.816Z,10.09
2023-05-19T01:03:17.663Z,10.12
2023-05-19T01:04:08.722Z,10.14
2023-05-19T01:04:59.513Z,10.15
2023-05-19T01:05:50.290Z,10.15
2023-05-19T01:06:41.067Z,10.19
2023-05-19T01:07:31.854Z,10.19
2023-05-19T01:08:22.644Z,10.22
2023-05-19T01:09:13.441Z,10.24
2023-05-19T01:10:04.268Z,10.25
2023-05-19T01:10:55.012Z,10.26
2023-05-19T01:11:45.786Z,10.28
2023-05-19T01:12:36.553Z,10.28
2023-05-19T01:13:27.314Z,10.33
2023-05-19T01:14:18.033Z,10.33
2023-05-19T01:15:08.831Z,10.34
2023-05-19T01:15:59.633Z,10.34
2023-05-19T01:16:50.567Z,10.37
2023-05-19T01:17:41.330Z,10.37
2023-05-19T01:18:32.100Z,10.39
2023-05-19T01:19:22.924Z,10.40
2023-05-19T01:20:13.692Z,10.40
2023-05-19T01:21:04.462Z,10.39
2023-05-19T01:21:55.244Z,10.39
2023-05-19T01:22:46.028Z,10.40
2023-05-19T01:23:36.792Z,10.42
2023-05-19T01:24:27.582Z,10.40
2023-05-19T01:25:18.374Z,10.43
2023-05-19T01:26:09.159Z,10.42
2023-05-19T01:26:59.954Z,10.43
2023-05-19T01:27:50.717Z,10.43
2023-05-19T01:28:41.486Z,10.43
2023-05-19T01:29:32.538Z,10.44
2023-05-19T01:30:23.305Z,10.42
2023-05-19T01:31:14.063Z,10.43
2023-05-19T01:32:04.892Z,10.44
2023-05-19T01:32:55.690Z,10.44
2023-05-19T01:33:46.442Z,10.44
2023-05-19T01:34:37.248Z,10.44
2023-05-19T01:35:27.968Z,10.44
2023-05-19T01:36:18.990Z,10.44
2023-05-19T01:37:09.772Z,10.44
2023-05-19T01:38:00.501Z,10.44
2023-05-19T01:38:51.286Z,10.44
2023-05-19T01:39:42.069Z,10.42
2023-05-19T01:40:33.043Z,10.39
2023-05-19T01:41:24.031Z,10.37
2023-05-19T01:42:14.807Z,10.34
2023-05-19T01:43:05.616Z,10.32
2023-05-19T01:43:56.385Z,10.28
2023-05-19T01:44:47.148Z,10.25
2023-05-19T01:45:38.029Z,10.21
2023-05-19T01:46:28.798Z,10.17
2023-05-19T01:47:19.549Z,10.12
2023-05-19T01:48:11.370Z,10.06
2023-05-19T01:49:01.477Z,10.07
2023-05-19T01:49:52.276Z,10.07
2023-05-19T01:50:43.060Z,10.07
2023-05-19T01:51:33.836Z,10.07
2023-05-19T01:52:24.655Z,10.07
2023-05-19T01:53:15.414Z,10.10
2023-05-19T01:54:06.137Z,10.10
2023-05-19T01:54:56.948Z,10.14
2023-05-19T01:55:47.714Z,10.12
2023-05-19T01:56:38.493Z,10.14
2023-05-19T01:57:29.230Z,10.15
2023-05-19T01:58:20.018Z,10.18
2023-05-19T01:59:10.749Z,10.17
2023-05-19T02:00:01.534Z,10.15
2023-05-19T02:00:52.405Z,10.17
2023-05-19T02:01:43.163Z,10.18
2023-05-19T02:02:34.000Z,10.17
2023-05-19T02:03:24.697Z,10.15
2023-05-19T02:04:15.592Z,10.18
2023-05-19T02:05:06.369Z,10.19
2023-05-19T02:05:57.235Z,10.21
2023-05-19T02:06:47.954Z,10.22
2023-05-19T02:07:38.695Z,10.22
2023-05-19T02:08:29.426Z,10.22
2023-05-19T02:09:20.184Z,10.24
2023-05-19T02:10:10.968Z,10.25
2023-05-19T02:11:01.725Z,10.25
2023-05-19T02:11:52.491Z,10.25
2023-05-19T02:12:43.254Z,10.26
2023-05-19T02:13:34.024Z,10.26
2023-05-19T02:14:25.020Z,10.28
2023-05-19T02:15:15.778Z,10.26
2023-05-19T02:16:06.661Z,10.30
2023-05-19T02:16:57.383Z,10.28
2023-05-19T02:17:48.219Z,10.28
2023-05-19T02:18:39.011Z,10.28
2023-05-19T02:19:29.762Z,10.28
2023-05-19T02:20:20.509Z,10.26
2023-05-19T02:21:11.295Z,10.28
2023-05-19T02:22:02.057Z,10.28
2023-05-19T02:22:52.806Z,10.26
2023-05-19T02:23:43.556Z,10.28
2023-05-19T02:24:34.312Z,10.28
2023-05-19T02:25:25.097Z,10.30
2023-05-19T02:26:15.845Z,10.30
2023-05-19T02:27:06.628Z,10.30
2023-05-19T02:27:57.411Z,10.32
2023-05-19T02:28:48.156Z,10.30
2023-05-19T02:29:38.949Z,10.28
2023-05-19T02:30:29.966Z,10.30
2023-05-19T02:31:20.787Z,10.28
2023-05-19T02:32:11.608Z,10.30
2023-05-19T02:33:02.413Z,10.32
2023-05-19T02:33:53.149Z,10.32
2023-05-19T02:34:43.921Z,10.32
2023-05-19T02:35:34.877Z,10.33
2023-05-19T02:36:25.722Z,10.30
2023-05-19T02:37:16.593Z,10.32
2023-05-19T02:38:07.456Z,10.33
2023-05-19T02:38:58.320Z,10.32
2023-05-19T02:39:49.173Z,10.30
2023-05-19T02:40:40.052Z,10.32
2023-05-19T02:41:30.989Z,10.30
2023-05-19T02:42:22.291Z,10.30
2023-05-19T02:43:13.076Z,10.30
2023-05-19T02:44:03.878Z,10.28
2023-05-19T02:44:54.747Z,10.30
2023-05-19T02:45:45.511Z,10.32
2023-05-19T02:46:36.500Z,10.30
2023-05-19T02:47:27.659Z,10.32
2023-05-19T02:48:18.301Z,10.30
2023-05-19T02:49:09.158Z,10.30
2023-05-19T02:50:00.059Z,10.32
2023-05-19T02:50:50.820Z,10.32
2023-05-19T02:51:41.765Z,10.28
2023-05-19T02:52:32.614Z,10.25
2023-05-19T02:53:23.498Z,10.25
2023-05-19T02:54:14.375Z,10.22
2023-05-19T02:55:05.225Z,10.18
2023-05-19T02:55:56.077Z,10.17
2023-05-19T02:56:46.973Z,10.15
2023-05-19T02:57:37.812Z,10.14
2023-05-19T02:58:28.692Z,10.12
2023-05-19T02:59:19.572Z,10.09
2023-05-19T03:00:10.432Z,10.07
2023-05-19T03:01:01.304Z,10.07
2023-05-19T03:01:52.257Z,10.04
2023-05-19T03:02:43.208Z,10.04
2023-05-19T03:03:34.125Z,10.00
2023-05-19T03:04:25.006Z,9.97
2023-05-19T03:05:15.863Z,9.97
2023-05-19T03:06:06.728Z,9.94
2023-05-19T03:06:57.645Z,9.96
2023-05-19T03:07:48.508Z,9.94
2023-05-19T03:08:41.560Z,9.93
2023-05-19T03:09:30.125Z,9.93
2023-05-19T03:10:21.017Z,9.93
2023-05-19T03:11:11.879Z,9.89
2023-05-19T03:12:02.769Z,9.88
2023-05-19T03:12:53.669Z,9.88
2023-05-19T03:13:44.534Z,9.86
2023-05-19T03:14:35.418Z,9.83
2023-05-19T03:15:26.284Z,9.81
2023-05-19T03:16:17.279Z,9.81
2023-05-19T03:17:08.303Z,9.78
2023-05-19T03:17:59.235Z,9.75
2023-05-19T03:18:50.107Z,9.71
2023-05-19T03:19:40.976Z,9.70
2023-05-19T03:20:31.954Z,9.67
2023-05-19T03:21:22.875Z,9.67
2023-05-19T03:22:13.784Z,9.63
2023-05-19T03:23:04.653Z,9.60
2023-05-19T03:23:55.536Z,9.57
2023-05-19T03:24:46.458Z,9.56
2023-05-19T03:25:37.324Z,9.53
2023-05-19T03:26:28.185Z,9.50
2023-05-19T03:27:19.061Z,9.49
2023-05-19T03:28:09.932Z,9.48
2023-05-19T03:29:00.829Z,9.45
2023-05-19T03:29:51.710Z,9.43
2023-05-19T03:30:42.599Z,9.40
2023-05-19T03:31:33.464Z,9.39
2023-05-19T03:32:24.432Z,9.38
2023-05-19T03:33:15.731Z,9.38
2023-05-19T03:34:06.692Z,9.38
2023-05-19T03:34:57.585Z,9.38
2023-05-19T03:35:48.451Z,9.38
2023-05-19T03:36:39.345Z,9.35
2023-05-19T03:37:30.218Z,9.35
2023-05-19T03:38:21.095Z,9.40
2023-05-19T03:39:11.979Z,9.42
2023-05-19T03:40:02.869Z,9.45
2023-05-19T03:40:53.815Z,9.48
2023-05-19T03:41:44.655Z,9.48
2023-05-19T03:42:35.532Z,9.52
2023-05-19T03:43:26.419Z,9.53
2023-05-19T03:44:17.309Z,9.56
2023-05-19T03:45:08.231Z,9.58
2023-05-19T03:45:59.122Z,9.58
2023-05-19T03:46:49.997Z,9.63
2023-05-19T03:47:41.016Z,9.64
2023-05-19T03:48:31.843Z,9.67
2023-05-19T03:49:22.748Z,9.68
2023-05-19T03:50:13.640Z,9.70
2023-05-19T03:51:04.522Z,9.73
2023-05-19T03:51:55.419Z,9.75
2023-05-19T03:52:46.317Z,9.79
2023-05-19T03:53:37.208Z,9.79
2023-05-19T03:54:28.140Z,9.82
2023-05-19T03:55:18.997Z,9.82
2023-05-19T03:56:09.907Z,9.81
2023-05-19T03:57:00.803Z,9.82
2023-05-19T03:57:51.688Z,9.82
2023-05-19T03:58:42.569Z,9.82
2023-05-19T03:59:33.482Z,9.86
2023-05-19T04:00:24.392Z,9.86
2023-05-19T04:01:15.306Z,9.88
2023-05-19T04:02:07.741Z,9.88
2023-05-19T04:02:57.384Z,9.88
2023-05-19T04:03:48.328Z,9.86
2023-05-19T04:04:39.245Z,9.83
2023-05-19T04:05:30.108Z,9.83
2023-05-19T04:06:21.052Z,9.81
2023-05-19T04:07:11.934Z,9.79
2023-05-19T04:08:02.881Z,9.78
2023-05-19T04:08:53.768Z,9.78
2023-05-19T04:09:44.677Z,9.76
2023-05-19T04:10:35.609Z,9.76
2023-05-19T04:11:26.506Z,9.75
2023-05-19T04:12:17.422Z,9.71
2023-05-19T04:13:08.885Z,9.73
2023-05-19T04:13:59.183Z,9.71
2023-05-19T04:14:50.096Z,9.70
2023-05-19T04:15:41.034Z,9.70
2023-05-19T04:16:31.926Z,9.71
2023-05-19T04:17:22.861Z,9.71
2023-05-19T04:18:13.831Z,9.75
2023-05-19T04:19:04.879Z,9.78
2023-05-19T04:19:55.809Z,9.78
2023-05-19T04:20:46.750Z,9.81
2023-05-19T04:21:37.657Z,9.85
2023-05-19T04:22:28.572Z,9.86
2023-05-19T04:23:19.474Z,9.89
2023-05-19T04:24:10.388Z,9.91
2023-05-19T04:25:01.284Z,9.91
2023-05-19T04:25:52.184Z,9.93
2023-05-19T04:26:43.090Z,9.94
2023-05-19T04:27:33.994Z,9.94
2023-05-19T04:28:24.901Z,9.94
2023-05-19T04:29:15.815Z,9.96
2023-05-19T04:30:06.722Z,9.97
2023-05-19T04:30:57.740Z,9.99
2023-05-19T04:31:48.611Z,9.99
2023-05-19T04:32:39.584Z,9.97
2023-05-19T04:33:30.639Z,9.99
2023-05-19T04:34:21.523Z,9.97
2023-05-19T04:35:12.455Z,9.97
2023-05-19T04:36:03.385Z,9.94
2023-05-19T04:36:54.290Z,9.93
2023-05-19T04:37:45.193Z,9.93
2023-05-19T04:38:36.122Z,9.89
2023-05-19T04:39:27.040Z,9.86
2023-05-19T04:40:17.940Z,9.88
2023-05-19T04:41:08.855Z,9.86
2023-05-19T04:41:59.758Z,9.86
2023-05-19T04:42:50.681Z,9.85
2023-05-19T04:43:41.620Z,9.91
2023-05-19T04:44:32.526Z,9.93
2023-05-19T04:45:23.476Z,9.96
2023-05-19T04:46:14.396Z,9.96
2023-05-19T04:47:05.297Z,9.96
2023-05-19T04:47:56.217Z,9.99
2023-05-19T04:48:47.103Z,10.00
2023-05-19T04:49:37.999Z,10.01
2023-05-19T04:50:28.992Z,10.03
2023-05-19T04:51:19.847Z,10.06
2023-05-19T04:52:10.742Z,10.06
2023-05-19T04:53:01.645Z,10.07
2023-05-19T04:53:52.557Z,10.07
2023-05-19T04:54:43.459Z,10.12
2023-05-19T04:55:34.349Z,10.15
2023-05-19T04:56:25.307Z,10.17
2023-05-19T04:57:16.191Z,10.17
2023-05-19T04:58:07.101Z,10.18
2023-05-19T04:58:58.018Z,10.18
2023-05-19T04:59:48.915Z,10.19
2023-05-19T05:00:39.819Z,10.18
2023-05-19T05:01:30.908Z,10.19
2023-05-19T05:02:21.974Z,10.18
2023-05-19T05:03:13.118Z,10.21
2023-05-19T05:04:04.090Z,10.24
2023-05-19T05:04:54.998Z,10.26
2023-05-19T05:05:45.933Z,10.28
2023-05-19T05:06:36.826Z,10.28
2023-05-19T05:07:28.939Z,10.33
2023-05-19T05:08:18.714Z,10.37
2023-05-19T05:09:09.613Z,10.42
2023-05-19T05:10:00.534Z,10.44
2023-05-19T05:10:51.429Z,10.47
2023-05-19T05:11:42.342Z,10.51
2023-05-19T05:12:33.258Z,10.53
2023-05-19T05:13:24.355Z,10.55
2023-05-19T05:14:15.297Z,10.55
2023-05-19T05:15:06.177Z,10.58
2023-05-19T05:15:57.104Z,10.58
2023-05-19T05:16:48.049Z,10.59
2023-05-19T05:17:38.959Z,10.59
2023-05-19T05:18:29.839Z,10.62
2023-05-19T05:19:20.877Z,10.62
2023-05-19T05:20:11.734Z,10.63
2023-05-19T05:21:02.636Z,10.65
2023-05-19T05:21:53.541Z,10.66
2023-05-19T05:22:44.440Z,10.65
2023-05-19T05:23:35.364Z,10.68
2023-05-19T05:24:26.302Z,10.71
2023-05-19T05:25:17.193Z,10.73
2023-05-19T05:26:08.097Z,10.73
2023-05-19T05:26:59.023Z,10.77
2023-05-19T05:27:49.925Z,10.81
2023-05-19T05:28:40.823Z,10.83
2023-05-19T05:29:31.741Z,10.86
2023-05-19T05:30:22.675Z,10.89
2023-05-19T05:31:13.585Z,10.92
2023-05-19T05:32:04.537Z,10.96
2023-05-19T05:32:55.509Z,10.98
2023-05-19T05:33:46.483Z,11.01
2023-05-19T05:34:37.381Z,11.02
2023-05-19T05:35:28.253Z,11.06
2023-05-19T05:36:19.157Z,11.09
2023-05-19T05:37:10.064Z,11.11
2023-05-19T05:38:00.967Z,11.13
2023-05-19T05:38:51.860Z,11.14
2023-05-19T05:39:42.797Z,11.17
2023-05-19T05:40:33.701Z,11.21
2023-05-19T05:41:24.610Z,11.21
2023-05-19T05:42:15.517Z,11.27
2023-05-19T05:43:06.412Z,11.29
2023-05-19T05:43:57.322Z,11.29
2023-05-19T05:44:48.235Z,11.32
2023-05-19T05:45:39.172Z,11.35
2023-05-19T05:46:30.163Z,11.36
2023-05-19T05:47:21.062Z,11.39
2023-05-19T05:48:12.021Z,11.41
2023-05-19T05:49:02.880Z,11.44
2023-05-19T05:49:53.812Z,11.49
2023-05-19T05:50:44.721Z,11.50
2023-05-19T05:51:35.631Z,11.53
2023-05-19T05:52:26.547Z,11.54
2023-05-19T05:53:17.470Z,11.57
2023-05-19T05:54:08.371Z,11.61
2023-05-19T05:54:59.308Z,11.61
2023-05-19T05:55:50.185Z,11.65
2023-05-19T05:56:41.094Z,11.68
2023-05-19T05:57:31.991Z,11.71
2023-05-19T05:58:22.892Z,11.72
2023-05-19T05:59:13.812Z,11.75
2023-05-19T06:00:04.711Z,11.77
2023-05-19T06:00:55.622Z,11.82
2023-05-19T06:01:46.540Z,11.82
2023-05-19T06:02:37.569Z,11.87
2023-05-19T06:03:28.529Z,11.89
2023-05-19T06:04:19.469Z,11.90
2023-05-19T06:05:10.374Z,11.96
2023-05-19T06:06:01.288Z,11.99
2023-05-19T06:06:52.198Z,12.01
2023-05-19T06:07:43.128Z,12.02
2023-05-19T06:08:34.041Z,12.05
2023-05-19T06:09:24.930Z,12.06
2023-05-19T06:10:15.843Z,12.11
2023-05-19T06:11:06.777Z,12.12
2023-05-19T06:11:57.666Z,12.19
2023-05-19T06:12:48.597Z,12.20
2023-05-19T06:13:39.488Z,12.23
2023-05-19T06:14:30.387Z,12.24
2023-05-19T06:15:21.296Z,12.29
2023-05-19T06:16:12.229Z,12.31
2023-05-19T06:17:03.130Z,12.34
2023-05-19T06:17:54.083Z,12.37
2023-05-19T06:18:45.035Z,12.39
2023-05-19T06:19:35.968Z,12.45
2023-05-19T06:20:26.871Z,12.45
2023-05-19T06:21:17.753Z,12.46
2023-05-19T06:22:08.646Z,12.49
2023-05-19T06:22:59.553Z,12.54
2023-05-19T06:23:50.464Z,12.56
2023-05-19T06:24:41.373Z,12.59
2023-05-19T06:25:32.509Z,12.60
2023-05-19T06:26:22.967Z,12.62
2023-05-19T06:27:13.874Z,12.67
2023-05-19T06:28:04.777Z,12.67
2023-05-19T06:28:55.678Z,12.70
2023-05-19T06:29:46.582Z,12.71
2023-05-19T06:30:37.481Z,12.75
2023-05-19T06:31:28.438Z,12.79
2023-05-19T06:32:19.317Z,12.82
2023-05-19T06:33:10.373Z,12.84
2023-05-19T06:34:01.241Z,12.87
2023-05-19T06:34:52.155Z,12.88
2023-05-19T06:35:43.067Z,12.92
2023-05-19T06:36:33.953Z,12.96
2023-05-19T06:37:24.866Z,12.97
2023-05-19T06:38:15.792Z,13.00
2023-05-19T06:39:06.692Z,13.03
2023-05-19T06:39:57.605Z,13.04
2023-05-19T06:40:48.518Z,13.09
2023-05-19T06:41:39.423Z,13.11
2023-05-19T06:42:30.338Z,13.14
2023-05-19T06:43:21.267Z,13.17
2023-05-19T06:44:12.145Z,13.21
2023-05-19T06:45:03.084Z,13.22
2023-05-19T06:45:53.961Z,13.25
2023-05-19T06:46:44.912Z,13.25
2023-05-19T06:47:35.810Z,13.29
2023-05-19T06:48:26.714Z,13.30
2023-05-19T06:49:17.598Z,13.33
2023-05-19T06:50:08.513Z,13.36
2023-05-19T06:50:59.445Z,13.38
2023-05-19T06:51:50.319Z,13.41
2023-05-19T06:52:41.220Z,13.46
2023-05-19T06:53:32.122Z,13.47
2023-05-19T06:54:23.044Z,13.54
2023-05-19T06:55:13.944Z,13.55
2023-05-19T06:56:04.859Z,13.59
2023-05-19T06:56:55.767Z,13.61
2023-05-19T06:57:46.668Z,13.62
2023-05-19T06:58:37.581Z,13.67
2023-05-19T06:59:28.490Z,13.67
2023-05-19T07:00:21.365Z,13.71
2023-05-19T07:01:10.234Z,13.71
2023-05-19T07:02:01.188Z,13.74
2023-05-19T07:02:52.190Z,13.79
2023-05-19T07:03:43.180Z,13.81
2023-05-19T07:04:34.129Z,13.83
2023-05-19T07:05:25.042Z,13.88
2023-05-19T07:06:15.987Z,13.91
2023-05-19T07:07:06.846Z,13.91
2023-05-19T07:07:57.754Z,13.95
2023-05-19T07:08:48.673Z,13.96
2023-05-19T07:09:39.398Z,13.98
2023-05-19T07:10:30.379Z,14.01
2023-05-19T07:11:21.271Z,14.02
2023-05-19T07:12:12.168Z,14.06
2023-05-19T07:13:03.075Z,14.10
2023-05-19T07:13:53.989Z,14.10
2023-05-19T07:14:44.894Z,14.12
2023-05-19T07:15:35.815Z,14.13
2023-05-19T07:16:26.774Z,14.14
2023-05-19T07:17:17.666Z,14.14
2023-05-19T07:18:08.598Z,14.16
2023-05-19T07:18:59.491Z,14.20
2023-05-19T07:19:50.396Z,14.20
2023-05-19T07:20:41.279Z,14.24
2023-05-19T07:21:32.280Z,14.25
2023-05-19T07:22:23.121Z,14.27
2023-05-19T07:23:15.449Z,14.31
2023-05-19T07:24:04.965Z,14.31
2023-05-19T07:24:55.882Z,14.31
2023-05-19T07:25:46.789Z,14.35
2023-05-19T07:26:37.708Z,14.37
2023-05-19T07:27:28.612Z,14.37
2023-05-19T07:28:19.525Z,14.39
2023-05-19T07:29:10.421Z,14.42
2023-05-19T07:30:01.321Z,14.43
2023-05-19T07:30:52.232Z,14.44
2023-05-19T07:31:43.182Z,14.47
2023-05-19T07:32:34.147Z,14.49
2023-05-19T07:33:25.027Z,14.49
2023-05-19T07:34:15.953Z,14.50
2023-05-19T07:35:06.875Z,14.54
2023-05-19T07:35:57.794Z,14.56
2023-05-19T07:36:48.711Z,14.57
2023-05-19T07:37:39.588Z,14.60
2023-05-19T07:38:30.520Z,14.60
2023-05-19T07:39:21.517Z,14.62
2023-05-19T07:40:12.449Z,14.64
2023-05-19T07:41:03.328Z,14.64
2023-05-19T07:41:54.273Z,14.65
2023-05-19T07:42:45.164Z,14.68
2023-05-19T07:43:36.094Z,14.68
2023-05-19T07:44:26.992Z,14.69
2023-05-19T07:45:17.927Z,14.71
2023-05-19T07:46:08.964Z,14.72
2023-05-19T07:46:59.812Z,14.74
2023-05-19T07:47:51.810Z,14.80
2023-05-19T07:48:41.494Z,14.78
2023-05-19T07:49:32.351Z,14.83
2023-05-19T07:50:23.277Z,14.83
2023-05-19T07:51:14.175Z,14.84
2023-05-19T07:52:05.117Z,14.86
2023-05-19T07:52:55.980Z,14.87
2023-05-19T07:53:46.883Z,14.87
2023-05-19T07:54:37.807Z,14.91
2023-05-19T07:55:28.717Z,14.95
2023-05-19T07:56:19.637Z,14.98
2023-05-19T07:57:10.560Z,15.03
2023-05-19T07:58:01.488Z,15.03
2023-05-19T07:58:52.441Z,15.05
2023-05-19T07:59:43.385Z,15.08
2023-05-19T08:00:34.570Z,15.11
2023-05-19T08:01:24.981Z,15.13
2023-05-19T08:02:15.894Z,15.13
2023-05-19T08:03:07.070Z,15.13
2023-05-19T08:03:58.043Z,15.19
2023-05-19T08:04:49.008Z,15.23
2023-05-19T08:05:39.932Z,15.23
2023-05-19T08:06:30.851Z,15.28
2023-05-19T08:07:21.803Z,15.30
2023-05-19T08:08:12.689Z,15.35
2023-05-19T08:09:03.607Z,15.38
2023-05-19T08:09:54.536Z,15.41
2023-05-19T08:10:45.461Z,15.43
2023-05-19T08:11:36.386Z,15.49
2023-05-19T08:12:27.316Z,15.51
2023-05-19T08:13:18.235Z,15.54
2023-05-19T08:14:09.131Z,15.57
2023-05-19T08:15:01.335Z,15.61
2023-05-19T08:15:50.801Z,15.63
2023-05-19T08:16:41.704Z,15.67
2023-05-19T08:17:32.671Z,15.67
2023-05-19T08:18:23.549Z,15.72
2023-05-19T08:19:14.505Z,15.74
2023-05-19T08:20:05.404Z,15.76
2023-05-19T08:20:56.323Z,15.76
2023-05-19T08:21:47.249Z,15.78
2023-05-19T08:22:38.183Z,15.82
2023-05-19T08:23:29.083Z,15.85
2023-05-19T08:24:20.008Z,15.88
2023-05-19T08:25:10.932Z,15.89
2023-05-19T08:26:01.851Z,15.93
2023-05-19T08:26:52.818Z,15.94
2023-05-19T08:27:43.680Z,15.99
2023-05-19T08:28:34.595Z,15.99
2023-05-19T08:29:25.510Z,16.01
2023-05-19T08:30:16.443Z,16.01
2023-05-19T08:31:07.387Z,16.04
2023-05-19T08:31:58.287Z,16.09
2023-05-19T08:32:49.291Z,16.14
2023-05-19T08:33:40.177Z,16.18
2023-05-19T08:34:31.092Z,16.20
2023-05-19T08:35:22.032Z,16.25
2023-05-19T08:36:12.951Z,16.30
2023-05-19T08:37:03.898Z,16.33
2023-05-19T08:37:54.873Z,16.33
2023-05-19T08:38:45.728Z,16.35
2023-05-19T08:39:36.656Z,16.37
2023-05-19T08:40:27.585Z,16.40
2023-05-19T08:41:18.504Z,16.41
2023-05-19T08:42:09.424Z,16.42
2023-05-19T08:43:00.370Z,16.45
2023-05-19T08:43:51.256Z,16.48
2023-05-19T08:44:42.164Z,16.53
2023-05-19T08:45:33.342Z,16.52
2023-05-19T08:46:23.699Z,16.55
2023-05-19T08:47:14.599Z,16.56
2023-05-19T08:48:05.587Z,16.56
2023-05-19T08:48:56.549Z,16.60
2023-05-19T08:49:47.471Z,16.60
2023-05-19T08:50:38.391Z,16.67
2023-05-19T08:51:29.313Z,16.68
2023-05-19T08:52:20.238Z,16.70
2023-05-19T08:53:20.985Z,16.74
2023-05-19T08:54:03.077Z,16.80
2023-05-19T08:54:52.846Z,16.83
2023-05-19T08:55:43.775Z,16.88
2023-05-19T08:56:34.693Z,16.95
2023-05-19T08:57:25.610Z,16.98
2023-05-19T08:58:16.535Z,17.00
2023-05-19T08:59:07.466Z,17.06
2023-05-19T08:59:58.443Z,17.10
2023-05-19T09:00:49.405Z,17.13
2023-05-19T09:01:40.328Z,17.14
2023-05-19T09:02:31.253Z,17.18
2023-05-19T09:03:23.863Z,17.23
2023-05-19T09:04:13.275Z,17.23
2023-05-19T09:05:04.413Z,17.29
2023-05-19T09:05:55.337Z,17.32
2023-05-19T09:06:46.261Z,17.38
2023-05-19T09:07:37.229Z,17.43
2023-05-19T09:08:28.132Z,17.50
2023-05-19T09:09:19.026Z,17.53
2023-05-19T09:10:09.982Z,17.62
2023-05-19T09:11:00.918Z,17.66
2023-05-19T09:11:51.874Z,17.70
2023-05-19T09:12:42.800Z,17.78
2023-05-19T09:13:33.739Z,17.78
2023-05-19T09:14:24.688Z,17.81
2023-05-19T09:15:15.649Z,17.87
2023-05-19T09:16:06.681Z,17.88
2023-05-19T09:16:57.659Z,17.94
2023-05-19T09:17:48.574Z,17.95
2023-05-19T09:18:39.526Z,17.99
2023-05-19T09:19:30.491Z,18.03
2023-05-19T09:20:21.397Z,18.02
2023-05-19T09:21:12.314Z,18.06
2023-05-19T09:22:03.274Z,18.04
2023-05-19T09:22:54.180Z,18.06
2023-05-19T09:23:45.128Z,18.09
2023-05-19T09:24:36.061Z,18.07
2023-05-19T09:25:27.945Z,18.09
2023-05-19T09:26:17.652Z,18.09
2023-05-19T09:27:08.568Z,18.10
2023-05-19T09:27:59.508Z,18.10
2023-05-19T09:28:50.449Z,18.10
2023-05-19T09:29:41.363Z,18.07
2023-05-19T09:30:32.313Z,18.06
2023-05-19T09:31:23.241Z,18.04
2023-05-19T09:32:14.283Z,17.99
2023-05-19T09:33:05.153Z,17.97
2023-05-19T09:33:56.084Z,17.95
2023-05-19T09:34:47.011Z,17.94
2023-05-19T09:35:37.962Z,17.95
2023-05-19T09:36:28.880Z,17.95
2023-05-19T09:37:19.846Z,17.99
2023-05-19T09:38:10.750Z,17.99
2023-05-19T09:39:01.713Z,18.02
2023-05-19T09:39:52.631Z,18.04
2023-05-19T09:40:43.553Z,18.04
2023-05-19T09:41:34.488Z,18.06
2023-05-19T09:42:25.404Z,18.10
2023-05-19T09:43:16.338Z,18.12
2023-05-19T09:44:07.257Z,18.18
2023-05-19T09:44:58.182Z,18.21
2023-05-19T09:45:49.128Z,18.22
2023-05-19T09:46:40.143Z,18.21
2023-05-19T09:47:31.185Z,18.28
2023-05-19T09:48:22.082Z,18.34
2023-05-19T09:49:13.035Z,18.36
2023-05-19T09:50:03.982Z,18.40
2023-05-19T09:50:54.930Z,18.43
2023-05-19T09:51:45.876Z,18.49
2023-05-19T09:52:36.818Z,18.52
2023-05-19T09:53:27.751Z,18.54
2023-05-19T09:54:18.713Z,18.58
2023-05-19T09:55:09.627Z,18.61
2023-05-19T09:56:00.568Z,18.67
2023-05-19T09:56:51.489Z,18.70
2023-05-19T09:57:42.422Z,18.74
2023-05-19T09:58:33.354Z,18.79
2023-05-19T09:59:24.294Z,18.79
2023-05-19T10:00:15.217Z,18.80
2023-05-19T10:01:06.244Z,18.84
2023-05-19T10:01:57.173Z,18.92
2023-05-19T10:02:48.111Z,18.97
2023-05-19T10:03:39.005Z,19.06
2023-05-19T10:04:30.041Z,19.10
2023-05-19T10:05:21.033Z,19.14
2023-05-19T10:06:11.959Z,19.18
2023-05-19T10:07:02.914Z,19.23
2023-05-19T10:07:53.842Z,19.24
2023-05-19T10:08:44.785Z,19.25
2023-05-19T10:09:35.756Z,19.31
2023-05-19T10:10:26.666Z,19.35
2023-05-19T10:11:17.592Z,19.36
2023-05-19T10:12:08.526Z,19.39
2023-05-19T10:12:59.469Z,19.39
2023-05-19T10:13:50.421Z,19.42
2023-05-19T10:14:41.358Z,19.43
2023-05-19T10:15:34.443Z,19.48
2023-05-19T10:16:23.281Z,19.51
2023-05-19T10:17:14.185Z,19.54
2023-05-19T10:18:05.179Z,19.57
2023-05-19T10:18:56.141Z,19.53
2023-05-19T10:19:47.017Z,19.55
2023-05-19T10:20:37.955Z,19.60
2023-05-19T10:21:28.882Z,19.61
2023-05-19T10:22:19.816Z,19.66
2023-05-19T10:23:10.761Z,19.66
2023-05-19T10:24:01.712Z,19.70
2023-05-19T10:24:52.652Z,19.75
2023-05-19T10:25:43.555Z,19.78
2023-05-19T10:26:34.490Z,19.84
2023-05-19T10:27:25.422Z,19.88
2023-05-19T10:28:16.386Z,19.91
2023-05-19T10:29:07.311Z,19.98
2023-05-19T10:29:58.266Z,19.98
2023-05-19T10:30:49.210Z,20.03
2023-05-19T10:31:40.178Z,20.09
2023-05-19T10:32:31.235Z,20.06
2023-05-19T10:33:22.186Z,20.09
2023-05-19T10:34:13.058Z,20.12
2023-05-19T10:35:03.994Z,20.12
2023-05-19T10:35:54.939Z,20.12
2023-05-19T10:36:45.863Z,20.12
2023-05-19T10:37:36.804Z,20.15
2023-05-19T10:38:27.728Z,20.13
2023-05-19T10:39:18.479Z,20.16
2023-05-19T10:40:09.529Z,20.16
2023-05-19T10:41:00.227Z,20.21
2023-05-19T10:41:51.174Z,20.21
2023-05-19T10:42:42.107Z,20.24
2023-05-19T10:43:33.065Z,20.24
2023-05-19T10:44:23.995Z,20.25
2023-05-19T10:45:15.207Z,20.23
2023-05-19T10:46:06.152Z,20.24
2023-05-19T10:46:57.316Z,20.25
2023-05-19T10:47:48.312Z,20.28
2023-05-19T10:48:39.211Z,20.31
2023-05-19T10:49:30.145Z,20.31
2023-05-19T10:50:21.067Z,20.38
2023-05-19T10:51:12.044Z,20.41
2023-05-19T10:52:03.057Z,20.43
2023-05-19T10:52:53.963Z,20.49
2023-05-19T10:53:44.914Z,20.51
2023-05-19T10:54:35.849Z,20.56
2023-05-19T10:55:26.912Z,20.66
2023-05-19T10:56:17.790Z,20.71
2023-05-19T10:57:08.726Z,20.74
2023-05-19T10:57:59.657Z,20.77
2023-05-19T10:58:50.599Z,20.83